sensor_id;sensor_type;location;lat;lon;timestamp;temperature;humidity
40702;DHT22;26387;50.114;8.662;2022-12-07T00:01:58;8.10;92.30
40702;DHT22;26387;50.114;8.662;2022-12-07T00:04:23;8.10;92.30
40702;DHT22;26387;50.114;8.662;2022-12-07T00:06:52;8.10;92.10
40702;DHT22;26387;50.114;8.662;2022-12-07T00:09:18;8.00;92.40
40702;DHT22;26387;50.114;8.662;2022-12-07T00:11:44;8.00;92.50
40702;DHT22;26387;50.114;8.662;2022-12-07T00:14:11;7.90;92.30
40702;DHT22;26387;50.114;8.662;2022-12-07T00:16:37;7.90;92.30
40702;DHT22;26387;50.114;8.662;2022-12-07T00:19:03;7.90;92.40
40702;DHT22;26387;50.114;8.662;2022-12-07T00:21:30;7.80;92.40
40702;DHT22;26387;50.114;8.662;2022-12-07T00:23:56;7.80;92.50
40702;DHT22;26387;50.114;8.662;2022-12-07T00:26:23;7.80;92.60
40702;DHT22;26387;50.114;8.662;2022-12-07T00:28:55;7.80;92.60
40702;DHT22;26387;50.114;8.662;2022-12-07T00:31:22;7.70;92.80
40702;DHT22;26387;50.114;8.662;2022-12-07T00:33:48;7.70;92.70
40702;DHT22;26387;50.114;8.662;2022-12-07T00:36:18;7.70;92.80
40702;DHT22;26387;50.114;8.662;2022-12-07T00:38:44;7.70;92.70
40702;DHT22;26387;50.114;8.662;2022-12-07T00:41:10;7.60;92.80
40702;DHT22;26387;50.114;8.662;2022-12-07T00:43:36;7.60;93.10
40702;DHT22;26387;50.114;8.662;2022-12-07T00:46:02;7.60;93.10
40702;DHT22;26387;50.114;8.662;2022-12-07T00:48:27;7.60;93.30
40702;DHT22;26387;50.114;8.662;2022-12-07T00:50:53;7.60;93.40
40702;DHT22;26387;50.114;8.662;2022-12-07T00:53:18;7.60;93.40
40702;DHT22;26387;50.114;8.662;2022-12-07T00:55:44;7.70;93.40
40702;DHT22;26387;50.114;8.662;2022-12-07T00:58:09;7.70;93.30
40702;DHT22;26387;50.114;8.662;2022-12-07T01:00:35;7.70;93.30
40702;DHT22;26387;50.114;8.662;2022-12-07T01:03:01;7.80;93.30
40702;DHT22;26387;50.114;8.662;2022-12-07T01:05:27;7.80;93.40
40702;DHT22;26387;50.114;8.662;2022-12-07T01:07:52;7.80;93.30
40702;DHT22;26387;50.114;8.662;2022-12-07T01:10:18;7.90;93.30
40702;DHT22;26387;50.114;8.662;2022-12-07T01:12:43;7.90;93.30
40702;DHT22;26387;50.114;8.662;2022-12-07T01:15:09;7.90;93.20
40702;DHT22;26387;50.114;8.662;2022-12-07T01:17:34;7.80;93.30
40702;DHT22;26387;50.114;8.662;2022-12-07T01:20:00;7.80;93.20
40702;DHT22;26387;50.114;8.662;2022-12-07T01:22:25;7.70;93.40
40702;DHT22;26387;50.114;8.662;2022-12-07T01:24:51;7.70;93.60
40702;DHT22;26387;50.114;8.662;2022-12-07T01:27:17;7.70;93.70
40702;DHT22;26387;50.114;8.662;2022-12-07T01:29:42;7.60;93.70
40702;DHT22;26387;50.114;8.662;2022-12-07T01:32:07;7.60;93.90
40702;DHT22;26387;50.114;8.662;2022-12-07T01:34:33;7.50;94.00
40702;DHT22;26387;50.114;8.662;2022-12-07T01:36:58;7.50;94.20
40702;DHT22;26387;50.114;8.662;2022-12-07T01:39:24;7.40;94.20
40702;DHT22;26387;50.114;8.662;2022-12-07T01:41:50;7.30;94.40
40702;DHT22;26387;50.114;8.662;2022-12-07T01:44:22;7.40;94.30
40702;DHT22;26387;50.114;8.662;2022-12-07T01:46:52;7.30;94.30
40702;DHT22;26387;50.114;8.662;2022-12-07T01:51:46;7.50;94.30
40702;DHT22;26387;50.114;8.662;2022-12-07T01:54:12;7.50;94.10
40702;DHT22;26387;50.114;8.662;2022-12-07T01:56:40;7.50;94.20
40702;DHT22;26387;50.114;8.662;2022-12-07T01:59:06;7.50;93.90
40702;DHT22;26387;50.114;8.662;2022-12-07T02:01:33;7.50;94.10
40702;DHT22;26387;50.114;8.662;2022-12-07T02:03:58;7.50;93.80
40702;DHT22;26387;50.114;8.662;2022-12-07T02:06:24;7.50;94.00
40702;DHT22;26387;50.114;8.662;2022-12-07T02:08:50;7.50;93.90
40702;DHT22;26387;50.114;8.662;2022-12-07T02:11:15;7.50;94.00
40702;DHT22;26387;50.114;8.662;2022-12-07T02:13:41;7.50;94.00
40702;DHT22;26387;50.114;8.662;2022-12-07T02:21:25;7.50;94.70
40702;DHT22;26387;50.114;8.662;2022-12-07T02:32:11;7.40;94.80
40702;DHT22;26387;50.114;8.662;2022-12-07T02:37:21;7.40;95.00
40702;DHT22;26387;50.114;8.662;2022-12-07T02:39:51;7.40;94.80
40702;DHT22;26387;50.114;8.662;2022-12-07T02:42:19;7.40;94.90
40702;DHT22;26387;50.114;8.662;2022-12-07T02:44:47;7.40;94.70
40702;DHT22;26387;50.114;8.662;2022-12-07T02:47:13;7.30;94.60
40702;DHT22;26387;50.114;8.662;2022-12-07T02:49:40;7.30;94.80
40702;DHT22;26387;50.114;8.662;2022-12-07T02:52:05;7.30;94.70
40702;DHT22;26387;50.114;8.662;2022-12-07T02:54:31;7.30;94.80
40702;DHT22;26387;50.114;8.662;2022-12-07T02:57:15;7.30;94.60
40702;DHT22;26387;50.114;8.662;2022-12-07T02:59:54;7.30;94.50
40702;DHT22;26387;50.114;8.662;2022-12-07T03:04:52;7.30;94.80
40702;DHT22;26387;50.114;8.662;2022-12-07T03:07:29;7.40;94.70
40702;DHT22;26387;50.114;8.662;2022-12-07T03:12:28;7.50;94.40
40702;DHT22;26387;50.114;8.662;2022-12-07T03:14:56;7.50;94.50
40702;DHT22;26387;50.114;8.662;2022-12-07T03:17:26;7.50;94.30
40702;DHT22;26387;50.114;8.662;2022-12-07T03:19:52;7.50;94.50
40702;DHT22;26387;50.114;8.662;2022-12-07T03:22:20;7.50;94.40
40702;DHT22;26387;50.114;8.662;2022-12-07T03:24:50;7.40;94.30
40702;DHT22;26387;50.114;8.662;2022-12-07T03:30:04;7.30;94.60
40702;DHT22;26387;50.114;8.662;2022-12-07T03:32:39;7.30;94.50
40702;DHT22;26387;50.114;8.662;2022-12-07T03:37:44;7.40;94.50
40702;DHT22;26387;50.114;8.662;2022-12-07T03:42:36;7.30;94.80
40702;DHT22;26387;50.114;8.662;2022-12-07T03:45:02;7.30;94.80
40702;DHT22;26387;50.114;8.662;2022-12-07T03:47:43;7.40;94.90
40702;DHT22;26387;50.114;8.662;2022-12-07T03:50:13;7.40;94.90
40702;DHT22;26387;50.114;8.662;2022-12-07T03:52:40;7.40;94.80
40702;DHT22;26387;50.114;8.662;2022-12-07T03:55:27;7.40;94.70
40702;DHT22;26387;50.114;8.662;2022-12-07T03:57:54;7.50;94.80
40702;DHT22;26387;50.114;8.662;2022-12-07T04:00:21;7.50;94.70
40702;DHT22;26387;50.114;8.662;2022-12-07T04:02:47;7.50;94.70
40702;DHT22;26387;50.114;8.662;2022-12-07T04:05:12;7.50;94.80
40702;DHT22;26387;50.114;8.662;2022-12-07T04:07:38;7.50;94.80
40702;DHT22;26387;50.114;8.662;2022-12-07T04:10:04;7.50;94.70
40702;DHT22;26387;50.114;8.662;2022-12-07T04:12:29;7.50;94.70
40702;DHT22;26387;50.114;8.662;2022-12-07T04:14:55;7.40;94.80
40702;DHT22;26387;50.114;8.662;2022-12-07T04:17:20;7.50;94.90
40702;DHT22;26387;50.114;8.662;2022-12-07T04:19:46;7.50;94.70
40702;DHT22;26387;50.114;8.662;2022-12-07T04:22:11;7.50;94.80
40702;DHT22;26387;50.114;8.662;2022-12-07T04:24:37;7.50;94.80
40702;DHT22;26387;50.114;8.662;2022-12-07T04:27:02;7.50;94.90
40702;DHT22;26387;50.114;8.662;2022-12-07T04:29:28;7.50;94.60
40702;DHT22;26387;50.114;8.662;2022-12-07T04:31:53;7.50;94.70
40702;DHT22;26387;50.114;8.662;2022-12-07T04:34:19;7.50;94.70
40702;DHT22;26387;50.114;8.662;2022-12-07T04:36:45;7.60;94.70
40702;DHT22;26387;50.114;8.662;2022-12-07T04:39:21;7.60;94.50
40702;DHT22;26387;50.114;8.662;2022-12-07T04:41:47;7.60;94.70
40702;DHT22;26387;50.114;8.662;2022-12-07T04:44:13;7.60;94.60
40702;DHT22;26387;50.114;8.662;2022-12-07T04:46:39;7.60;94.70
40702;DHT22;26387;50.114;8.662;2022-12-07T04:49:05;7.50;94.50
40702;DHT22;26387;50.114;8.662;2022-12-07T04:51:31;7.50;94.80
40702;DHT22;26387;50.114;8.662;2022-12-07T04:53:56;7.50;94.70
40702;DHT22;26387;50.114;8.662;2022-12-07T04:56:22;7.50;94.80
40702;DHT22;26387;50.114;8.662;2022-12-07T04:58:48;7.50;94.80
40702;DHT22;26387;50.114;8.662;2022-12-07T05:01:14;7.40;94.70
40702;DHT22;26387;50.114;8.662;2022-12-07T05:03:40;7.40;94.80
40702;DHT22;26387;50.114;8.662;2022-12-07T05:06:05;7.30;94.90
40702;DHT22;26387;50.114;8.662;2022-12-07T05:08:34;7.30;94.90
40702;DHT22;26387;50.114;8.662;2022-12-07T05:11:00;7.30;95.10
40702;DHT22;26387;50.114;8.662;2022-12-07T05:13:25;7.30;95.00
40702;DHT22;26387;50.114;8.662;2022-12-07T05:15:51;7.20;95.20
40702;DHT22;26387;50.114;8.662;2022-12-07T05:18:16;7.20;95.10
40702;DHT22;26387;50.114;8.662;2022-12-07T05:20:42;7.20;95.20
40702;DHT22;26387;50.114;8.662;2022-12-07T05:23:07;7.20;95.20
40702;DHT22;26387;50.114;8.662;2022-12-07T05:25:33;7.20;95.30
40702;DHT22;26387;50.114;8.662;2022-12-07T05:27:58;7.30;95.30
40702;DHT22;26387;50.114;8.662;2022-12-07T05:30:24;7.40;95.10
40702;DHT22;26387;50.114;8.662;2022-12-07T05:32:50;7.50;95.00
40702;DHT22;26387;50.114;8.662;2022-12-07T05:35:16;7.60;95.00
40702;DHT22;26387;50.114;8.662;2022-12-07T05:37:41;7.70;94.80
40702;DHT22;26387;50.114;8.662;2022-12-07T05:40:07;7.80;94.80
40702;DHT22;26387;50.114;8.662;2022-12-07T05:42:33;7.80;94.60
40702;DHT22;26387;50.114;8.662;2022-12-07T05:44:58;8.00;94.60
40702;DHT22;26387;50.114;8.662;2022-12-07T05:47:23;8.00;94.30
40702;DHT22;26387;50.114;8.662;2022-12-07T05:49:49;8.10;94.20
40702;DHT22;26387;50.114;8.662;2022-12-07T05:52:15;8.10;94.20
40702;DHT22;26387;50.114;8.662;2022-12-07T05:54:40;8.10;94.00
40702;DHT22;26387;50.114;8.662;2022-12-07T05:57:06;8.10;94.10
40702;DHT22;26387;50.114;8.662;2022-12-07T05:59:31;8.10;94.30
40702;DHT22;26387;50.114;8.662;2022-12-07T06:02:01;8.20;94.10
40702;DHT22;26387;50.114;8.662;2022-12-07T06:04:28;8.20;94.10
40702;DHT22;26387;50.114;8.662;2022-12-07T06:06:54;8.20;94.10
40702;DHT22;26387;50.114;8.662;2022-12-07T06:09:21;8.20;94.00
40702;DHT22;26387;50.114;8.662;2022-12-07T06:11:47;8.10;94.00
40702;DHT22;26387;50.114;8.662;2022-12-07T06:14:31;8.10;94.10
40702;DHT22;26387;50.114;8.662;2022-12-07T06:16:57;8.10;94.20
40702;DHT22;26387;50.114;8.662;2022-12-07T06:19:22;8.00;94.10
40702;DHT22;26387;50.114;8.662;2022-12-07T06:21:48;8.00;94.30
40702;DHT22;26387;50.114;8.662;2022-12-07T06:24:14;8.10;94.40
40702;DHT22;26387;50.114;8.662;2022-12-07T06:26:40;8.10;94.30
40702;DHT22;26387;50.114;8.662;2022-12-07T06:29:05;8.10;94.20
40702;DHT22;26387;50.114;8.662;2022-12-07T06:31:31;8.10;94.50
40702;DHT22;26387;50.114;8.662;2022-12-07T06:34:04;8.00;94.10
40702;DHT22;26387;50.114;8.662;2022-12-07T06:36:30;8.10;94.40
40702;DHT22;26387;50.114;8.662;2022-12-07T06:38:55;8.10;94.30
40702;DHT22;26387;50.114;8.662;2022-12-07T06:41:21;8.20;94.20
40702;DHT22;26387;50.114;8.662;2022-12-07T06:43:46;8.10;94.00
40702;DHT22;26387;50.114;8.662;2022-12-07T06:46:12;8.10;94.20
40702;DHT22;26387;50.114;8.662;2022-12-07T06:48:38;8.00;94.30
40702;DHT22;26387;50.114;8.662;2022-12-07T06:51:03;8.00;94.30
40702;DHT22;26387;50.114;8.662;2022-12-07T06:53:29;8.00;94.30
40702;DHT22;26387;50.114;8.662;2022-12-07T06:55:54;8.00;94.40
40702;DHT22;26387;50.114;8.662;2022-12-07T06:58:20;8.00;94.30
40702;DHT22;26387;50.114;8.662;2022-12-07T07:00:45;8.00;94.60
40702;DHT22;26387;50.114;8.662;2022-12-07T07:03:12;8.10;94.40
40702;DHT22;26387;50.114;8.662;2022-12-07T07:05:38;8.10;94.40
40702;DHT22;26387;50.114;8.662;2022-12-07T07:08:03;8.10;94.30
40702;DHT22;26387;50.114;8.662;2022-12-07T07:10:30;8.00;94.30
40702;DHT22;26387;50.114;8.662;2022-12-07T07:12:55;8.00;94.40
40702;DHT22;26387;50.114;8.662;2022-12-07T07:15:21;8.00;94.50
40702;DHT22;26387;50.114;8.662;2022-12-07T07:17:46;7.90;94.60
40702;DHT22;26387;50.114;8.662;2022-12-07T07:20:12;7.90;94.60
40702;DHT22;26387;50.114;8.662;2022-12-07T07:22:37;7.90;94.80
40702;DHT22;26387;50.114;8.662;2022-12-07T07:25:03;8.00;94.80
40702;DHT22;26387;50.114;8.662;2022-12-07T07:27:28;8.00;94.70
40702;DHT22;26387;50.114;8.662;2022-12-07T07:29:54;8.10;94.60
40702;DHT22;26387;50.114;8.662;2022-12-07T07:32:19;8.20;94.60
40702;DHT22;26387;50.114;8.662;2022-12-07T07:34:46;8.20;94.40
40702;DHT22;26387;50.114;8.662;2022-12-07T07:37:12;8.10;94.50
40702;DHT22;26387;50.114;8.662;2022-12-07T07:39:38;8.10;94.70
40702;DHT22;26387;50.114;8.662;2022-12-07T07:42:03;8.10;94.90
40702;DHT22;26387;50.114;8.662;2022-12-07T07:44:29;8.00;94.70
40702;DHT22;26387;50.114;8.662;2022-12-07T07:46:54;8.10;94.60
40702;DHT22;26387;50.114;8.662;2022-12-07T07:49:20;8.10;94.60
40702;DHT22;26387;50.114;8.662;2022-12-07T07:51:45;8.10;94.50
40702;DHT22;26387;50.114;8.662;2022-12-07T07:54:11;8.10;94.60
40702;DHT22;26387;50.114;8.662;2022-12-07T07:56:36;8.00;94.50
40702;DHT22;26387;50.114;8.662;2022-12-07T07:59:02;8.00;94.50
40702;DHT22;26387;50.114;8.662;2022-12-07T08:01:27;7.90;94.60
40702;DHT22;26387;50.114;8.662;2022-12-07T08:03:53;7.90;94.80
40702;DHT22;26387;50.114;8.662;2022-12-07T08:06:18;8.00;94.80
40702;DHT22;26387;50.114;8.662;2022-12-07T08:08:44;7.90;94.50
40702;DHT22;26387;50.114;8.662;2022-12-07T08:11:09;7.90;94.50
40702;DHT22;26387;50.114;8.662;2022-12-07T08:13:37;7.70;94.60
40702;DHT22;26387;50.114;8.662;2022-12-07T08:16:06;7.70;94.80
40702;DHT22;26387;50.114;8.662;2022-12-07T08:18:35;7.60;94.90
40702;DHT22;26387;50.114;8.662;2022-12-07T08:21:02;7.70;94.90
40702;DHT22;26387;50.114;8.662;2022-12-07T08:23:27;7.70;94.90
40702;DHT22;26387;50.114;8.662;2022-12-07T08:25:53;7.60;94.90
40702;DHT22;26387;50.114;8.662;2022-12-07T08:28:18;7.70;94.80
40702;DHT22;26387;50.114;8.662;2022-12-07T08:30:44;7.80;94.80
40702;DHT22;26387;50.114;8.662;2022-12-07T08:33:09;7.80;94.60
40702;DHT22;26387;50.114;8.662;2022-12-07T08:35:35;7.90;94.50
40702;DHT22;26387;50.114;8.662;2022-12-07T08:38:01;8.00;94.60
40702;DHT22;26387;50.114;8.662;2022-12-07T08:40:27;8.10;94.00
40702;DHT22;26387;50.114;8.662;2022-12-07T08:42:53;8.10;94.10
40702;DHT22;26387;50.114;8.662;2022-12-07T08:45:19;8.20;93.90
40702;DHT22;26387;50.114;8.662;2022-12-07T08:47:53;8.30;93.80
40702;DHT22;26387;50.114;8.662;2022-12-07T08:50:19;8.30;93.90
40702;DHT22;26387;50.114;8.662;2022-12-07T08:52:48;8.30;93.60
40702;DHT22;26387;50.114;8.662;2022-12-07T08:55:14;8.30;93.70
40702;DHT22;26387;50.114;8.662;2022-12-07T08:57:39;8.20;93.70
40702;DHT22;26387;50.114;8.662;2022-12-07T09:00:05;8.20;94.00
40702;DHT22;26387;50.114;8.662;2022-12-07T09:02:32;8.20;93.50
40702;DHT22;26387;50.114;8.662;2022-12-07T09:04:57;8.20;93.70
40702;DHT22;26387;50.114;8.662;2022-12-07T09:07:23;8.20;93.90
40702;DHT22;26387;50.114;8.662;2022-12-07T09:09:49;8.20;93.90
40702;DHT22;26387;50.114;8.662;2022-12-07T09:12:14;8.20;93.70
40702;DHT22;26387;50.114;8.662;2022-12-07T09:14:40;8.30;93.90
40702;DHT22;26387;50.114;8.662;2022-12-07T09:17:09;8.30;93.80
40702;DHT22;26387;50.114;8.662;2022-12-07T09:19:35;8.30;93.80
40702;DHT22;26387;50.114;8.662;2022-12-07T09:22:00;8.40;93.70
40702;DHT22;26387;50.114;8.662;2022-12-07T09:24:26;8.30;93.60
40702;DHT22;26387;50.114;8.662;2022-12-07T09:26:52;8.20;93.70
40702;DHT22;26387;50.114;8.662;2022-12-07T09:29:17;8.20;93.80
40702;DHT22;26387;50.114;8.662;2022-12-07T09:31:42;8.20;93.80
40702;DHT22;26387;50.114;8.662;2022-12-07T09:34:08;8.10;93.90
40702;DHT22;26387;50.114;8.662;2022-12-07T09:36:33;8.20;93.90
40702;DHT22;26387;50.114;8.662;2022-12-07T09:38:59;8.40;93.90
40702;DHT22;26387;50.114;8.662;2022-12-07T09:41:25;8.40;93.80
40702;DHT22;26387;50.114;8.662;2022-12-07T09:43:52;8.40;93.70
40702;DHT22;26387;50.114;8.662;2022-12-07T09:46:18;8.40;93.60
40702;DHT22;26387;50.114;8.662;2022-12-07T09:48:44;8.50;93.70
40702;DHT22;26387;50.114;8.662;2022-12-07T09:51:14;8.60;93.40
40702;DHT22;26387;50.114;8.662;2022-12-07T09:53:40;8.50;93.40
40702;DHT22;26387;50.114;8.662;2022-12-07T09:56:06;8.50;93.40
40702;DHT22;26387;50.114;8.662;2022-12-07T09:58:32;8.50;93.30
40702;DHT22;26387;50.114;8.662;2022-12-07T10:01:00;8.60;93.40
40702;DHT22;26387;50.114;8.662;2022-12-07T10:03:26;8.60;93.20
40702;DHT22;26387;50.114;8.662;2022-12-07T10:05:52;8.70;93.10
40702;DHT22;26387;50.114;8.662;2022-12-07T10:08:18;8.70;92.80
40702;DHT22;26387;50.114;8.662;2022-12-07T10:10:44;8.70;92.80
40702;DHT22;26387;50.114;8.662;2022-12-07T10:15:52;8.90;92.60
40702;DHT22;26387;50.114;8.662;2022-12-07T10:18:19;9.00;92.70
40702;DHT22;26387;50.114;8.662;2022-12-07T10:20:45;9.20;92.50
40702;DHT22;26387;50.114;8.662;2022-12-07T10:23:17;9.20;92.40
40702;DHT22;26387;50.114;8.662;2022-12-07T10:25:43;9.30;92.20
40702;DHT22;26387;50.114;8.662;2022-12-07T10:30:52;9.60;91.20
40702;DHT22;26387;50.114;8.662;2022-12-07T11:17:46;10.90;85.40
40702;DHT22;26387;50.114;8.662;2022-12-07T11:22:43;10.80;83.90
40702;DHT22;26387;50.114;8.662;2022-12-07T11:30:28;10.60;84.70
40702;DHT22;26387;50.114;8.662;2022-12-07T11:35:35;10.70;84.00
40702;DHT22;26387;50.114;8.662;2022-12-07T11:38:07;10.70;84.20
40702;DHT22;26387;50.114;8.662;2022-12-07T11:40:34;10.70;84.50
40702;DHT22;26387;50.114;8.662;2022-12-07T11:43:03;10.70;83.50
40702;DHT22;26387;50.114;8.662;2022-12-07T11:45:33;10.60;83.20
40702;DHT22;26387;50.114;8.662;2022-12-07T11:48:00;10.60;83.10
40702;DHT22;26387;50.114;8.662;2022-12-07T11:50:40;10.60;83.20
40702;DHT22;26387;50.114;8.662;2022-12-07T12:01:01;10.60;83.60
40702;DHT22;26387;50.114;8.662;2022-12-07T12:03:30;10.60;82.00
40702;DHT22;26387;50.114;8.662;2022-12-07T12:05:57;10.60;82.00
40702;DHT22;26387;50.114;8.662;2022-12-07T12:08:32;10.50;82.70
40702;DHT22;26387;50.114;8.662;2022-12-07T12:13:49;10.60;81.70
40702;DHT22;26387;50.114;8.662;2022-12-07T12:21:17;10.50;82.00
40702;DHT22;26387;50.114;8.662;2022-12-07T12:23:51;10.40;81.80
40702;DHT22;26387;50.114;8.662;2022-12-07T12:26:21;10.40;82.40
40702;DHT22;26387;50.114;8.662;2022-12-07T12:31:32;10.60;82.90
40702;DHT22;26387;50.114;8.662;2022-12-07T12:33:58;10.80;82.80
40702;DHT22;26387;50.114;8.662;2022-12-07T12:44:08;11.10;81.50
40702;DHT22;26387;50.114;8.662;2022-12-07T12:46:55;11.10;82.10
40702;DHT22;26387;50.114;8.662;2022-12-07T12:56:49;11.20;81.40
40702;DHT22;26387;50.114;8.662;2022-12-07T13:01:46;11.20;80.70
40702;DHT22;26387;50.114;8.662;2022-12-07T13:04:34;11.20;80.80
40702;DHT22;26387;50.114;8.662;2022-12-07T13:07:03;11.40;83.70
40702;DHT22;26387;50.114;8.662;2022-12-07T13:09:29;11.50;83.40
40702;DHT22;26387;50.114;8.662;2022-12-07T13:12:04;11.50;81.90
40702;DHT22;26387;50.114;8.662;2022-12-07T13:17:02;11.70;78.70
40702;DHT22;26387;50.114;8.662;2022-12-07T13:27:37;12.20;77.80
40702;DHT22;26387;50.114;8.662;2022-12-07T13:30:09;12.10;78.00
40702;DHT22;26387;50.114;8.662;2022-12-07T13:32:38;12.00;78.00
40702;DHT22;26387;50.114;8.662;2022-12-07T13:35:26;11.80;78.70
40702;DHT22;26387;50.114;8.662;2022-12-07T13:37:49;11.50;79.30
40702;DHT22;26387;50.114;8.662;2022-12-07T13:40:17;11.30;80.20
40702;DHT22;26387;50.114;8.662;2022-12-07T13:42:43;11.10;81.20
40702;DHT22;26387;50.114;8.662;2022-12-07T13:45:22;10.90;82.40
40702;DHT22;26387;50.114;8.662;2022-12-07T13:48:10;10.80;82.30
40702;DHT22;26387;50.114;8.662;2022-12-07T13:50:39;10.90;82.20
40702;DHT22;26387;50.114;8.662;2022-12-07T13:53:07;11.00;82.00
40702;DHT22;26387;50.114;8.662;2022-12-07T13:55:36;11.00;82.00
40702;DHT22;26387;50.114;8.662;2022-12-07T13:58:09;11.00;81.80
40702;DHT22;26387;50.114;8.662;2022-12-07T14:00:34;11.00;82.00
40702;DHT22;26387;50.114;8.662;2022-12-07T14:03:02;11.00;82.50
40702;DHT22;26387;50.114;8.662;2022-12-07T14:05:31;10.90;82.50
40702;DHT22;26387;50.114;8.662;2022-12-07T14:07:58;10.90;82.50
40702;DHT22;26387;50.114;8.662;2022-12-07T14:12:53;10.70;84.00
40702;DHT22;26387;50.114;8.662;2022-12-07T14:15:20;10.70;83.60
40702;DHT22;26387;50.114;8.662;2022-12-07T14:17:53;10.70;84.00
40702;DHT22;26387;50.114;8.662;2022-12-07T14:20:29;10.60;83.80
40702;DHT22;26387;50.114;8.662;2022-12-07T14:22:56;10.50;84.30
40702;DHT22;26387;50.114;8.662;2022-12-07T14:27:48;10.20;85.30
40702;DHT22;26387;50.114;8.662;2022-12-07T14:30:14;10.10;86.10
40702;DHT22;26387;50.114;8.662;2022-12-07T14:32:40;9.90;86.00
40702;DHT22;26387;50.114;8.662;2022-12-07T14:35:11;9.90;86.60
40702;DHT22;26387;50.114;8.662;2022-12-07T14:37:37;10.00;87.20
40702;DHT22;26387;50.114;8.662;2022-12-07T14:40:04;10.00;87.10
40702;DHT22;26387;50.114;8.662;2022-12-07T14:42:29;10.10;87.00
40702;DHT22;26387;50.114;8.662;2022-12-07T14:44:56;10.10;86.90
40702;DHT22;26387;50.114;8.662;2022-12-07T14:47:22;10.10;87.10
40702;DHT22;26387;50.114;8.662;2022-12-07T14:49:48;9.80;88.00
40702;DHT22;26387;50.114;8.662;2022-12-07T14:52:15;9.70;89.00
40702;DHT22;26387;50.114;8.662;2022-12-07T14:54:41;9.60;89.30
40702;DHT22;26387;50.114;8.662;2022-12-07T14:57:08;9.60;90.40
40702;DHT22;26387;50.114;8.662;2022-12-07T14:59:34;9.40;91.00
40702;DHT22;26387;50.114;8.662;2022-12-07T15:02:00;9.20;92.20
40702;DHT22;26387;50.114;8.662;2022-12-07T15:04:25;9.00;92.60
40702;DHT22;26387;50.114;8.662;2022-12-07T15:06:57;9.00;92.80
40702;DHT22;26387;50.114;8.662;2022-12-07T15:09:23;9.00;92.90
40702;DHT22;26387;50.114;8.662;2022-12-07T15:11:49;8.90;92.80
40702;DHT22;26387;50.114;8.662;2022-12-07T15:14:14;9.00;92.60
40702;DHT22;26387;50.114;8.662;2022-12-07T15:16:41;8.90;92.80
40702;DHT22;26387;50.114;8.662;2022-12-07T15:19:10;9.00;92.90
40702;DHT22;26387;50.114;8.662;2022-12-07T15:21:36;9.20;92.30
40702;DHT22;26387;50.114;8.662;2022-12-07T15:24:02;9.10;91.90
40702;DHT22;26387;50.114;8.662;2022-12-07T15:26:27;9.10;91.90
40702;DHT22;26387;50.114;8.662;2022-12-07T15:28:53;9.00;92.20
40702;DHT22;26387;50.114;8.662;2022-12-07T15:31:19;9.10;91.90
40702;DHT22;26387;50.114;8.662;2022-12-07T15:33:45;9.10;91.90
40702;DHT22;26387;50.114;8.662;2022-12-07T15:36:20;9.10;92.40
40702;DHT22;26387;50.114;8.662;2022-12-07T15:38:46;9.00;91.60
40702;DHT22;26387;50.114;8.662;2022-12-07T15:41:12;8.90;92.00
40702;DHT22;26387;50.114;8.662;2022-12-07T15:43:37;8.90;92.30
40702;DHT22;26387;50.114;8.662;2022-12-07T15:46:22;9.00;92.30
40702;DHT22;26387;50.114;8.662;2022-12-07T15:48:47;8.90;92.30
40702;DHT22;26387;50.114;8.662;2022-12-07T15:51:13;8.90;92.50
40702;DHT22;26387;50.114;8.662;2022-12-07T15:53:38;8.90;92.30
40702;DHT22;26387;50.114;8.662;2022-12-07T15:56:07;8.90;92.20
40702;DHT22;26387;50.114;8.662;2022-12-07T15:58:33;9.00;92.30
40702;DHT22;26387;50.114;8.662;2022-12-07T16:00:59;9.10;92.00
40702;DHT22;26387;50.114;8.662;2022-12-07T16:03:24;9.10;92.00
40702;DHT22;26387;50.114;8.662;2022-12-07T16:05:50;9.00;92.00
40702;DHT22;26387;50.114;8.662;2022-12-07T16:08:16;9.10;92.10
40702;DHT22;26387;50.114;8.662;2022-12-07T16:10:41;9.10;92.00
40702;DHT22;26387;50.114;8.662;2022-12-07T16:13:10;9.10;91.90
40702;DHT22;26387;50.114;8.662;2022-12-07T16:15:39;9.20;91.90
40702;DHT22;26387;50.114;8.662;2022-12-07T16:18:04;9.10;91.70
40702;DHT22;26387;50.114;8.662;2022-12-07T16:20:30;9.10;91.80
40702;DHT22;26387;50.114;8.662;2022-12-07T16:22:55;9.00;92.10
40702;DHT22;26387;50.114;8.662;2022-12-07T16:25:21;9.00;92.10
40702;DHT22;26387;50.114;8.662;2022-12-07T16:27:46;9.00;92.10
40702;DHT22;26387;50.114;8.662;2022-12-07T16:30:12;9.00;92.00
40702;DHT22;26387;50.114;8.662;2022-12-07T16:32:37;9.10;91.90
40702;DHT22;26387;50.114;8.662;2022-12-07T16:35:03;9.20;92.00
40702;DHT22;26387;50.114;8.662;2022-12-07T16:37:28;9.10;91.70
40702;DHT22;26387;50.114;8.662;2022-12-07T16:39:54;9.10;91.90
40702;DHT22;26387;50.114;8.662;2022-12-07T16:42:19;9.10;92.10
40702;DHT22;26387;50.114;8.662;2022-12-07T16:44:45;9.10;91.70
40702;DHT22;26387;50.114;8.662;2022-12-07T16:47:10;9.00;91.70
40702;DHT22;26387;50.114;8.662;2022-12-07T16:49:36;8.90;91.60
40702;DHT22;26387;50.114;8.662;2022-12-07T16:52:01;8.90;91.60
40702;DHT22;26387;50.114;8.662;2022-12-07T16:54:27;8.90;91.70
40702;DHT22;26387;50.114;8.662;2022-12-07T16:56:56;8.90;91.70
40702;DHT22;26387;50.114;8.662;2022-12-07T16:59:21;9.00;91.70
40702;DHT22;26387;50.114;8.662;2022-12-07T17:01:46;8.80;92.00
40702;DHT22;26387;50.114;8.662;2022-12-07T17:04:12;8.70;92.20
40702;DHT22;26387;50.114;8.662;2022-12-07T17:06:37;8.70;92.20
40702;DHT22;26387;50.114;8.662;2022-12-07T17:09:03;8.70;92.00
40702;DHT22;26387;50.114;8.662;2022-12-07T17:11:30;8.80;91.80
40702;DHT22;26387;50.114;8.662;2022-12-07T17:13:56;8.80;91.80
40702;DHT22;26387;50.114;8.662;2022-12-07T17:16:40;8.70;91.80
40702;DHT22;26387;50.114;8.662;2022-12-07T17:19:07;8.70;92.10
40702;DHT22;26387;50.114;8.662;2022-12-07T17:21:33;8.70;92.10
40702;DHT22;26387;50.114;8.662;2022-12-07T17:23:58;8.70;92.20
40702;DHT22;26387;50.114;8.662;2022-12-07T17:26:24;8.70;92.30
40702;DHT22;26387;50.114;8.662;2022-12-07T17:28:50;8.80;92.30
40702;DHT22;26387;50.114;8.662;2022-12-07T17:31:17;8.90;92.20
40702;DHT22;26387;50.114;8.662;2022-12-07T17:33:43;8.80;92.10
40702;DHT22;26387;50.114;8.662;2022-12-07T17:36:13;8.90;92.10
40702;DHT22;26387;50.114;8.662;2022-12-07T17:38:39;9.00;92.00
40702;DHT22;26387;50.114;8.662;2022-12-07T17:41:08;8.90;92.00
40702;DHT22;26387;50.114;8.662;2022-12-07T17:43:34;8.90;92.30
40702;DHT22;26387;50.114;8.662;2022-12-07T17:46:04;8.90;92.10
40702;DHT22;26387;50.114;8.662;2022-12-07T17:48:30;9.00;92.30
40702;DHT22;26387;50.114;8.662;2022-12-07T17:51:01;9.00;92.20
40702;DHT22;26387;50.114;8.662;2022-12-07T17:53:49;8.90;92.00
40702;DHT22;26387;50.114;8.662;2022-12-07T17:56:15;9.00;92.20
40702;DHT22;26387;50.114;8.662;2022-12-07T17:58:40;8.90;92.30
40702;DHT22;26387;50.114;8.662;2022-12-07T18:01:09;8.80;92.50
40702;DHT22;26387;50.114;8.662;2022-12-07T18:03:34;8.70;92.30
40702;DHT22;26387;50.114;8.662;2022-12-07T18:06:00;8.60;92.70
40702;DHT22;26387;50.114;8.662;2022-12-07T18:08:26;8.60;92.80